createdAt,value
2023-06-06T00:00:09.024Z,100441.22
2023-06-06T00:03:16.524Z,100451.00
2023-06-06T00:06:22.167Z,100443.41
2023-06-06T00:09:25.052Z,100456.50
2023-06-06T00:12:29.862Z,100458.19
2023-06-06T00:15:33.049Z,100445.88
2023-06-06T00:18:36.545Z,100454.22
2023-06-06T00:21:39.172Z,100453.78
2023-06-06T00:24:42.032Z,100454.28
2023-06-06T00:27:44.759Z,100447.09
2023-06-06T00:30:47.695Z,100457.06
2023-06-06T00:33:50.456Z,100449.56
2023-06-06T00:36:53.434Z,100449.56
2023-06-06T00:39:57.353Z,100450.72
2023-06-06T00:43:00.314Z,100458.69
2023-06-06T00:46:03.088Z,100455.97
2023-06-06T00:49:06.676Z,100464.28
2023-06-06T00:52:10.550Z,100460.37
2023-06-06T00:55:18.939Z,100467.91
2023-06-06T00:58:22.156Z,100457.91
2023-06-06T01:01:30.131Z,100459.12
2023-06-06T01:04:33.089Z,100458.38
2023-06-06T01:07:39.186Z,100459.97
2023-06-06T01:10:43.580Z,100460.84
2023-06-06T01:13:56.266Z,100465.56
2023-06-06T01:17:04.361Z,100467.25
2023-06-06T01:20:09.103Z,100469.62
2023-06-06T01:23:13.199Z,100468.41
2023-06-06T01:26:16.258Z,100470.47
2023-06-06T01:29:19.003Z,100470.06
2023-06-06T01:32:39.155Z,100480.81
2023-06-06T01:36:09.682Z,100471.72
2023-06-06T01:39:16.504Z,100482.06
2023-06-06T01:42:21.090Z,100464.31
2023-06-06T01:45:30.870Z,100474.56
2023-06-06T01:48:33.692Z,100473.81
2023-06-06T01:51:38.048Z,100467.47
2023-06-06T01:54:41.979Z,100458.75
2023-06-06T01:57:44.965Z,100462.72
2023-06-06T02:00:47.737Z,100466.69
2023-06-06T02:03:50.941Z,100469.94
2023-06-06T02:06:53.728Z,100467.19
2023-06-06T02:09:56.944Z,100458.50
2023-06-06T02:12:59.618Z,100465.97
2023-06-06T02:16:02.652Z,100474.72
2023-06-06T02:19:05.312Z,100472.41
2023-06-06T02:22:08.414Z,100476.72
2023-06-06T02:25:13.660Z,100469.94
2023-06-06T02:28:16.876Z,100484.22
2023-06-06T02:31:22.719Z,100485.81
2023-06-06T02:34:26.153Z,100489.03
2023-06-06T02:37:29.401Z,100485.03
2023-06-06T02:40:32.437Z,100480.34
2023-06-06T02:43:37.037Z,100486.28
2023-06-06T02:46:40.184Z,100495.03
2023-06-06T02:49:43.040Z,100489.06
2023-06-06T02:52:46.034Z,100490.69
2023-06-06T02:55:48.690Z,100497.03
2023-06-06T02:58:52.624Z,100502.16
2023-06-06T03:01:55.410Z,100493.47
2023-06-06T03:04:58.467Z,100500.59
2023-06-06T03:08:02.149Z,100488.41
2023-06-06T03:11:05.227Z,100486.72
2023-06-06T03:14:09.576Z,100488.75
2023-06-06T03:17:13.039Z,100497.50
2023-06-06T03:20:17.014Z,100493.16
2023-06-06T03:23:24.184Z,100485.22
2023-06-06T03:26:28.110Z,100486.44
2023-06-06T03:29:31.931Z,100495.94
2023-06-06T03:32:36.098Z,100491.56
2023-06-06T03:35:39.485Z,100492.34
2023-06-06T03:38:42.121Z,100495.94
2023-06-06T03:41:45.428Z,100497.06
2023-06-06T03:44:48.189Z,100490.69
2023-06-06T03:47:51.954Z,100487.59
2023-06-06T03:50:54.620Z,100495.53
2023-06-06T03:53:57.833Z,100497.87
2023-06-06T03:57:01.161Z,100503.41
2023-06-06T04:00:12.156Z,100508.16
2023-06-06T04:03:16.001Z,100508.97
2023-06-06T04:06:21.443Z,100516.88
2023-06-06T04:09:24.095Z,100504.91
2023-06-06T04:12:27.433Z,100505.72
2023-06-06T04:15:30.340Z,100506.50
2023-06-06T04:18:33.324Z,100510.78
2023-06-06T04:21:37.238Z,100513.88
2023-06-06T04:24:40.172Z,100517.50
2023-06-06T04:27:46.045Z,100519.84
2023-06-06T04:30:54.330Z,100509.22
2023-06-06T04:33:58.489Z,100509.59
2023-06-06T04:37:05.574Z,100504.00
2023-06-06T04:40:11.757Z,100508.75
2023-06-06T04:43:18.372Z,100511.16
2023-06-06T04:46:24.944Z,100503.16
2023-06-06T04:49:29.622Z,100511.84
2023-06-06T04:52:34.385Z,100501.53
2023-06-06T04:55:37.527Z,100515.81
2023-06-06T04:58:43.323Z,100517.81
2023-06-06T05:01:48.030Z,100521.00
2023-06-06T05:04:54.899Z,100513.41
2023-06-06T05:07:57.858Z,100540.12
2023-06-06T05:11:02.145Z,100523.81
2023-06-06T05:14:05.881Z,100530.22
2023-06-06T05:17:08.786Z,100526.72
2023-06-06T05:20:12.199Z,100530.31
2023-06-06T05:23:14.938Z,100530.75
2023-06-06T05:26:17.999Z,100522.91
2023-06-06T05:29:20.693Z,100527.50
2023-06-06T05:32:23.750Z,100526.22
2023-06-06T05:35:26.642Z,100538.03
2023-06-06T05:38:29.766Z,100523.44
2023-06-06T05:41:32.913Z,100520.41
2023-06-06T05:44:36.681Z,100531.41
2023-06-06T05:47:39.721Z,100540.09
2023-06-06T05:50:44.736Z,100529.69
2023-06-06T05:53:47.717Z,100525.75
2023-06-06T05:56:51.671Z,100527.25
2023-06-06T05:59:54.502Z,100517.34
2023-06-06T06:02:59.427Z,100528.63
2023-06-06T06:06:06.575Z,100527.25
2023-06-06T06:09:09.808Z,100524.31
2023-06-06T06:12:12.746Z,100527.66
2023-06-06T06:15:15.610Z,100524.56
2023-06-06T06:18:19.078Z,100520.38
2023-06-06T06:21:22.700Z,100521.56
2023-06-06T06:24:25.883Z,100500.78
2023-06-06T06:27:28.520Z,100515.13
2023-06-06T06:30:31.506Z,100512.94
2023-06-06T06:33:35.082Z,100508.56
2023-06-06T06:36:38.019Z,100495.84
2023-06-06T06:39:41.129Z,100510.38
2023-06-06T06:42:45.351Z,100526.25
2023-06-06T06:45:48.587Z,100532.47
2023-06-06T06:48:52.265Z,100539.13
2023-06-06T06:51:55.918Z,100520.72
2023-06-06T06:55:01.352Z,100524.34
2023-06-06T06:58:07.136Z,100529.22
2023-06-06T07:01:10.425Z,100515.31
2023-06-06T07:04:13.371Z,100533.69
2023-06-06T07:07:17.398Z,100539.38
2023-06-06T07:10:21.531Z,100530.91
2023-06-06T07:13:24.426Z,100534.31
2023-06-06T07:16:27.533Z,100535.09
2023-06-06T07:19:30.540Z,100532.03
2023-06-06T07:22:39.727Z,100530.09
2023-06-06T07:25:43.355Z,100538.53
2023-06-06T07:28:48.025Z,100548.69
2023-06-06T07:31:51.368Z,100550.50
2023-06-06T07:34:54.082Z,100548.75
2023-06-06T07:37:57.041Z,100548.69
2023-06-06T07:40:59.883Z,100551.66
2023-06-06T07:44:03.076Z,100547.06
2023-06-06T07:47:05.950Z,100536.97
2023-06-06T07:50:09.935Z,100541.81
2023-06-06T07:53:12.863Z,100548.41
2023-06-06T07:56:16.100Z,100558.22
2023-06-06T07:59:18.916Z,100547.91
2023-06-06T08:02:22.074Z,100554.38
2023-06-06T08:05:25.260Z,100549.69
2023-06-06T08:08:27.955Z,100552.44
2023-06-06T08:11:30.922Z,100555.78
2023-06-06T08:14:36.561Z,100550.66
2023-06-06T08:17:39.606Z,100554.75
2023-06-06T08:20:42.293Z,100560.88
2023-06-06T08:23:45.397Z,100561.50
2023-06-06T08:26:48.104Z,100554.31
2023-06-06T08:29:51.800Z,100558.75
2023-06-06T08:32:54.628Z,100564.88
2023-06-06T08:35:59.828Z,100560.38
2023-06-06T08:39:04.598Z,100566.16
2023-06-06T08:42:10.782Z,100562.00
2023-06-06T08:45:14.403Z,100563.00
2023-06-06T08:48:19.114Z,100554.50
2023-06-06T08:51:26.063Z,100561.84
2023-06-06T08:54:30.092Z,100553.66
2023-06-06T08:57:33.904Z,100575.28
2023-06-06T09:00:36.824Z,100563.50
2023-06-06T09:03:39.587Z,100566.94
2023-06-06T09:06:45.885Z,100563.03
2023-06-06T09:09:50.274Z,100564.28
2023-06-06T09:12:53.333Z,100559.66
2023-06-06T09:15:56.066Z,100566.16
2023-06-06T09:18:59.949Z,100563.44
2023-06-06T09:22:08.691Z,100552.13
2023-06-06T09:25:26.147Z,100552.69
2023-06-06T09:28:39.298Z,100556.88
2023-06-06T09:31:43.419Z,100553.59
2023-06-06T09:34:46.260Z,100549.41
2023-06-06T09:37:50.561Z,100546.50
2023-06-06T09:40:53.893Z,100537.63
2023-06-06T09:43:56.952Z,100540.72
2023-06-06T09:47:01.434Z,100540.62
2023-06-06T09:50:05.190Z,100543.88
2023-06-06T09:53:13.737Z,100538.69
2023-06-06T09:56:17.079Z,100537.12
2023-06-06T09:59:23.350Z,100531.81
2023-06-06T10:02:30.262Z,100536.47
2023-06-06T10:05:33.680Z,100532.75
2023-06-06T10:08:38.852Z,100532.59
2023-06-06T10:11:43.192Z,100535.16
2023-06-06T10:14:46.426Z,100528.94
2023-06-06T10:17:51.645Z,100527.63
2023-06-06T10:20:56.270Z,100520.91
2023-06-06T10:23:59.520Z,100525.09
2023-06-06T10:27:28.441Z,100509.25
2023-06-06T10:30:34.183Z,100528.31
2023-06-06T10:33:45.976Z,100529.19
2023-06-06T10:36:49.221Z,100528.84
2023-06-06T10:40:03.574Z,100527.03
2023-06-06T10:43:06.724Z,100525.63
2023-06-06T10:46:09.888Z,100521.34
2023-06-06T10:49:13.591Z,100518.66
2023-06-06T10:52:16.240Z,100515.41
2023-06-06T10:55:21.990Z,100516.91
2023-06-06T10:58:34.543Z,100523.44
2023-06-06T11:01:37.950Z,100515.56
2023-06-06T11:04:41.067Z,100505.41
2023-06-06T11:07:48.294Z,100508.44
2023-06-06T11:10:50.970Z,100511.13
2023-06-06T11:14:04.799Z,100505.03
2023-06-06T11:17:12.434Z,100504.19
2023-06-06T11:20:19.828Z,100500.22
2023-06-06T11:23:23.362Z,100493.69
2023-06-06T11:26:29.887Z,100498.47
2023-06-06T11:29:33.476Z,100491.69
2023-06-06T11:32:36.454Z,100481.41
2023-06-06T11:35:42.018Z,100484.63
2023-06-06T11:38:45.146Z,100480.50
2023-06-06T11:41:50.371Z,100475.41
2023-06-06T11:44:53.402Z,100476.12
2023-06-06T11:48:06.704Z,100487.19
2023-06-06T11:51:17.226Z,100475.22
2023-06-06T11:54:20.669Z,100489.75
2023-06-06T11:57:23.851Z,100495.06
2023-06-06T12:00:28.735Z,100479.50
2023-06-06T12:03:34.838Z,100482.00
2023-06-06T12:06:37.639Z,100479.84
2023-06-06T12:09:41.180Z,100474.00
2023-06-06T12:12:45.055Z,100476.12
2023-06-06T12:15:49.167Z,100474.09
2023-06-06T12:18:52.743Z,100467.47
2023-06-06T12:21:55.762Z,100467.03
2023-06-06T12:24:58.460Z,100463.25
2023-06-06T12:28:14.594Z,100461.44
2023-06-06T12:31:21.639Z,100473.28
2023-06-06T12:35:01.094Z,100471.19
2023-06-06T12:38:05.471Z,100477.78
2023-06-06T12:41:08.683Z,100473.41
2023-06-06T12:44:13.922Z,100465.59
2023-06-06T12:47:18.741Z,100464.41
2023-06-06T12:50:23.410Z,100444.63
2023-06-06T12:53:26.628Z,100455.06
2023-06-06T12:56:29.852Z,100452.84
2023-06-06T12:59:32.817Z,100427.75
2023-06-06T13:02:36.095Z,100443.53
2023-06-06T13:05:39.211Z,100444.06
2023-06-06T13:08:42.815Z,100442.97
2023-06-06T13:11:46.575Z,100442.41
2023-06-06T13:14:49.485Z,100430.25
2023-06-06T13:17:52.507Z,100435.94
2023-06-06T13:20:57.365Z,100438.72
2023-06-06T13:24:00.444Z,100434.94
2023-06-06T13:27:03.185Z,100432.97
2023-06-06T13:30:06.922Z,100431.78
2023-06-06T13:33:09.680Z,100419.38
2023-06-06T13:36:12.697Z,100422.56
2023-06-06T13:39:16.170Z,100423.00
2023-06-06T13:42:19.143Z,100413.69
2023-06-06T13:45:21.920Z,100418.78
2023-06-06T13:48:24.913Z,100411.50
2023-06-06T13:51:28.520Z,100418.31
2023-06-06T13:54:31.654Z,100414.47
2023-06-06T13:57:41.909Z,100409.94
2023-06-06T14:00:45.759Z,100407.94
2023-06-06T14:03:50.404Z,100400.00
2023-06-06T14:06:54.177Z,100391.94
2023-06-06T14:09:57.719Z,100404.78
2023-06-06T14:13:00.418Z,100393.97
2023-06-06T14:16:04.201Z,100388.66
2023-06-06T14:19:15.749Z,100392.41
2023-06-06T14:22:34.996Z,100390.06
2023-06-06T14:25:38.397Z,100388.03
2023-06-06T14:28:42.109Z,100385.97
2023-06-06T14:31:44.810Z,100378.97
2023-06-06T14:34:48.890Z,100385.72
2023-06-06T14:37:51.741Z,100385.53
2023-06-06T14:40:55.498Z,100386.16
2023-06-06T14:43:58.104Z,100377.44
2023-06-06T14:47:01.266Z,100381.66
2023-06-06T14:50:04.491Z,100382.44
2023-06-06T14:53:07.531Z,100377.09
2023-06-06T14:56:10.161Z,100381.75
2023-06-06T14:59:14.114Z,100368.56
2023-06-06T15:02:17.436Z,100375.19
2023-06-06T15:05:21.393Z,100365.97
2023-06-06T15:08:24.057Z,100376.00
2023-06-06T15:11:27.138Z,100370.91
2023-06-06T15:14:30.055Z,100364.31
2023-06-06T15:17:33.326Z,100367.59
2023-06-06T15:20:35.976Z,100367.78
2023-06-06T15:23:39.077Z,100357.66
2023-06-06T15:26:42.152Z,100355.84
2023-06-06T15:29:48.273Z,100351.03
2023-06-06T15:32:51.401Z,100349.81
2023-06-06T15:35:57.505Z,100344.69
2023-06-06T15:39:04.157Z,100344.31
2023-06-06T15:42:08.369Z,100342.53
2023-06-06T15:45:11.683Z,100335.91
2023-06-06T15:48:17.827Z,100343.78
2023-06-06T15:51:20.595Z,100350.47
2023-06-06T15:54:23.807Z,100357.09
2023-06-06T15:57:26.743Z,100351.16
2023-06-06T16:00:30.858Z,100356.25
2023-06-06T16:03:33.967Z,100361.25
2023-06-06T16:06:36.811Z,100372.31
2023-06-06T16:09:39.874Z,100366.31
2023-06-06T16:12:42.944Z,100385.19
2023-06-06T16:15:46.249Z,100389.97
2023-06-06T16:18:49.604Z,100390.66
2023-06-06T16:21:52.854Z,100383.37
2023-06-06T16:24:56.015Z,100384.50
2023-06-06T16:27:59.222Z,100379.06
2023-06-06T16:31:02.070Z,100374.50
2023-06-06T16:34:05.013Z,100368.03
2023-06-06T16:37:07.722Z,100373.72
2023-06-06T16:40:11.534Z,100371.97
2023-06-06T16:43:14.458Z,100366.28
2023-06-06T16:46:17.734Z,100365.78
2023-06-06T16:49:20.528Z,100366.53
2023-06-06T16:52:24.714Z,100375.28
2023-06-06T16:55:27.555Z,100382.03
2023-06-06T16:58:30.479Z,100392.63
2023-06-06T17:01:33.280Z,100397.75
2023-06-06T17:04:36.347Z,100404.81
2023-06-06T17:07:39.058Z,100403.00
2023-06-06T17:10:42.121Z,100408.56
2023-06-06T17:13:45.089Z,100404.88
2023-06-06T17:16:48.170Z,100390.00
2023-06-06T17:19:50.874Z,100392.72
2023-06-06T17:22:53.814Z,100395.81
2023-06-06T17:25:56.499Z,100388.03
2023-06-06T17:28:59.500Z,100390.03
2023-06-06T17:32:02.176Z,100382.31
2023-06-06T17:35:05.938Z,100388.22
2023-06-06T17:38:08.677Z,100397.63
2023-06-06T17:41:11.685Z,100398.59
2023-06-06T17:44:14.350Z,100407.94
2023-06-06T17:47:17.869Z,100413.03
2023-06-06T17:50:20.754Z,100416.06
2023-06-06T17:53:23.842Z,100422.06
2023-06-06T17:56:33.924Z,100416.78
2023-06-06T17:59:37.092Z,100423.13
2023-06-06T18:02:39.720Z,100420.72
2023-06-06T18:05:42.640Z,100431.94
2023-06-06T18:08:45.258Z,100428.47
2023-06-06T18:11:48.324Z,100426.31
2023-06-06T18:14:53.076Z,100434.53
2023-06-06T18:17:57.120Z,100439.09
2023-06-06T18:20:59.903Z,100435.34
2023-06-06T18:24:04.054Z,100437.13
2023-06-06T18:27:07.521Z,100436.75
2023-06-06T18:30:11.012Z,100440.84
2023-06-06T18:33:13.839Z,100441.50
2023-06-06T18:36:18.158Z,100442.81
2023-06-06T18:39:21.343Z,100436.53
2023-06-06T18:42:24.340Z,100441.31
2023-06-06T18:45:27.401Z,100441.69
2023-06-06T18:48:30.541Z,100448.09
2023-06-06T18:51:33.353Z,100449.41
2023-06-06T18:54:36.620Z,100460.59
2023-06-06T18:57:39.446Z,100460.28
2023-06-06T19:00:42.735Z,100469.19
2023-06-06T19:03:48.971Z,100481.16
2023-06-06T19:06:52.108Z,100484.72
2023-06-06T19:09:56.605Z,100486.66
2023-06-06T19:12:59.597Z,100484.78
2023-06-06T19:16:03.133Z,100488.81
2023-06-06T19:19:07.154Z,100498.81
2023-06-06T19:22:09.862Z,100500.44
2023-06-06T19:25:13.051Z,100511.19
2023-06-06T19:28:15.865Z,100510.03
2023-06-06T19:31:18.989Z,100499.13
2023-06-06T19:34:21.827Z,100491.47
2023-06-06T19:37:24.973Z,100496.88
2023-06-06T19:40:27.880Z,100499.00
2023-06-06T19:43:31.085Z,100495.31
2023-06-06T19:46:34.126Z,100491.94
2023-06-06T19:49:40.047Z,100485.41
2023-06-06T19:52:43.167Z,100476.81
2023-06-06T19:55:47.825Z,100470.56
2023-06-06T19:58:50.543Z,100470.56
2023-06-06T20:01:53.599Z,100468.69
2023-06-06T20:04:56.760Z,100466.41
2023-06-06T20:07:59.424Z,100460.94
2023-06-06T20:11:02.472Z,100461.16
2023-06-06T20:14:05.147Z,100459.75
2023-06-06T20:17:08.466Z,100466.97
2023-06-06T20:20:11.841Z,100457.50
2023-06-06T20:23:14.826Z,100459.53
2023-06-06T20:26:17.524Z,100455.56
2023-06-06T20:29:20.498Z,100456.59
2023-06-06T20:32:23.243Z,100459.09
2023-06-06T20:35:26.262Z,100449.97
2023-06-06T20:38:29.030Z,100457.94
2023-06-06T20:41:33.246Z,100457.94
2023-06-06T20:44:36.070Z,100454.97
2023-06-06T20:47:41.110Z,100451.50
2023-06-06T20:50:44.265Z,100453.59
2023-06-06T20:53:47.198Z,100462.69
2023-06-06T20:56:49.907Z,100462.78
2023-06-06T20:59:54.023Z,100460.50
2023-06-06T21:02:56.873Z,100455.81
2023-06-06T21:05:59.910Z,100460.16
2023-06-06T21:09:02.587Z,100456.50
2023-06-06T21:12:07.384Z,100466.34
2023-06-06T21:15:11.332Z,100454.94
2023-06-06T21:18:14.394Z,100469.66
2023-06-06T21:21:17.878Z,100466.59
2023-06-06T21:24:20.852Z,100471.00
2023-06-06T21:27:23.522Z,100470.19
2023-06-06T21:30:26.538Z,100465.00
2023-06-06T21:33:29.466Z,100472.09
2023-06-06T21:36:32.616Z,100467.31
2023-06-06T21:39:35.362Z,100470.91
2023-06-06T21:42:38.294Z,100471.37
2023-06-06T21:45:40.922Z,100473.38
2023-06-06T21:48:44.071Z,100467.16
2023-06-06T21:51:46.770Z,100465.62
2023-06-06T21:54:49.660Z,100459.66
2023-06-06T21:57:52.353Z,100462.00
2023-06-06T22:00:55.413Z,100452.97
2023-06-06T22:03:58.518Z,100453.75
2023-06-06T22:07:04.135Z,100449.19
2023-06-06T22:10:07.532Z,100451.88
2023-06-06T22:13:10.208Z,100448.81
2023-06-06T22:16:13.200Z,100438.16
2023-06-06T22:19:15.829Z,100435.31
2023-06-06T22:22:18.795Z,100427.13
2023-06-06T22:25:21.749Z,100427.13
2023-06-06T22:28:25.618Z,100423.44
2023-06-06T22:31:28.278Z,100431.28
2023-06-06T22:34:31.349Z,100434.38
2023-06-06T22:37:34.112Z,100432.00
2023-06-06T22:40:37.262Z,100416.28
2023-06-06T22:43:39.933Z,100428.94
2023-06-06T22:46:43.029Z,100434.13
2023-06-06T22:49:45.771Z,100433.78
2023-06-06T22:52:49.380Z,100431.53
2023-06-06T22:55:52.041Z,100436.34
2023-06-06T22:58:54.998Z,100435.59
2023-06-06T23:01:57.743Z,100435.62
2023-06-06T23:05:00.781Z,100430.16
2023-06-06T23:08:03.550Z,100436.50
2023-06-06T23:11:06.706Z,100431.34
2023-06-06T23:14:09.339Z,100432.12
2023-06-06T23:17:15.319Z,100434.94
2023-06-06T23:20:18.679Z,100432.97
2023-06-06T23:23:21.570Z,100449.94
2023-06-06T23:26:24.233Z,100454.69
2023-06-06T23:29:27.718Z,100442.47
2023-06-06T23:32:30.508Z,100433.84
2023-06-06T23:35:33.466Z,100440.94
2023-06-06T23:38:36.174Z,100435.03
2023-06-06T23:41:39.289Z,100438.59
2023-06-06T23:44:42.411Z,100435.47
2023-06-06T23:47:45.343Z,100435.06
2023-06-06T23:50:47.938Z,100429.94
2023-06-06T23:53:50.932Z,100437.06
2023-06-06T23:56:53.650Z,100432.72
2023-06-06T23:59:56.548Z,100433.13
